Time;durP1;ratioP1;P1;durP2;ratioP2;P2;SDS_P1;SDS_P2;PMS_P1;PMS_P2;Temp;Humidity;BMP_temperature;BMP_pressure;BME280_temperature;BME280_humidity;BME280_pressure;Samples;Min_cycle;Max_cycle;Signal;HPM_P1;HPM_P2
2022/04/06 00:00:06;;;;;;;5.70;4.45;;;10.10;99.90;;;;;;6024932;23;20239;-83
2022/04/06 00:02:33;;;;;;;4.60;4.30;;;10.10;99.90;;;;;;6030938;23;20584;-82
2022/04/06 00:05:01;;;;;;;4.75;4.38;;;10.10;99.90;;;;;;6030690;23;20192;-84
2022/04/06 00:07:28;;;;;;;4.80;4.40;;;10.10;99.90;;;;;;6022356;23;20577;-83
2022/04/06 00:09:55;;;;;;;4.45;4.15;;;10.20;99.90;;;;;;6028207;23;20203;-83
2022/04/06 00:12:23;;;;;;;4.72;4.22;;;10.10;99.90;;;;;;6033686;23;20196;-82
2022/04/06 00:14:50;;;;;;;4.20;3.90;;;10.20;99.90;;;;;;6031450;23;20280;-83
2022/04/06 00:17:17;;;;;;;4.60;4.20;;;10.10;99.90;;;;;;6032402;23;20282;-83
2022/04/06 00:19:44;;;;;;;4.90;4.50;;;10.10;99.90;;;;;;6032543;23;20299;-82
2022/04/06 00:22:11;;;;;;;3.95;3.65;;;10.10;99.90;;;;;;6024177;23;20758;-83
2022/04/06 00:24:38;;;;;;;4.05;3.75;;;10.10;99.90;;;;;;6032719;23;20222;-82
2022/04/06 00:27:05;;;;;;;3.90;3.60;;;10.10;99.90;;;;;;6034152;23;20266;-83
2022/04/06 00:29:34;;;;;;;4.40;4.10;;;10.10;99.90;;;;;;6033311;23;20188;-83
2022/04/06 00:32:01;;;;;;;4.32;3.83;;;10.10;99.90;;;;;;6033258;23;20212;-83
2022/04/06 00:37:09;;;;;;;4.95;4.55;;;10.20;99.90;;;;;;6018626;23;20640;-83
2022/04/06 00:39:36;;;;;;;4.78;4.38;;;10.20;99.90;;;;;;6035195;23;20698;-83
2022/04/06 00:42:04;;;;;;;3.90;3.70;;;10.30;99.90;;;;;;6031898;23;20220;-83
2022/04/06 00:44:34;;;;;;;3.80;3.50;;;10.30;99.90;;;;;;6033282;23;20610;-83
2022/04/06 00:47:03;;;;;;;3.70;3.50;;;10.40;99.90;;;;;;6033980;23;20208;-82
2022/04/06 00:49:31;;;;;;;4.65;4.25;;;10.40;99.90;;;;;;6034516;23;20196;-83
2022/04/06 00:52:00;;;;;;;3.83;3.53;;;10.50;99.90;;;;;;6031790;23;20299;-83
2022/04/06 00:54:29;;;;;;;4.55;3.47;;;10.50;99.90;;;;;;6034143;23;20240;-82
2022/04/06 00:56:57;;;;;;;4.93;4.53;;;10.50;99.90;;;;;;6032583;23;20194;-83
2022/04/06 00:59:26;;;;;;;4.60;4.30;;;10.50;99.90;;;;;;6033599;23;20200;-83
2022/04/06 01:01:55;;;;;;;4.70;4.40;;;10.50;99.90;;;;;;6028310;23;20678;-83
2022/04/06 01:04:23;;;;;;;4.93;4.53;;;10.50;99.90;;;;;;6034528;23;20193;-82
2022/04/06 01:06:50;;;;;;;4.95;4.53;;;10.50;99.90;;;;;;6030060;23;20219;-83
2022/04/06 01:09:18;;;;;;;5.45;4.95;;;10.50;99.90;;;;;;6028455;23;20214;-83
2022/04/06 01:11:47;;;;;;;4.63;4.22;;;10.50;99.90;;;;;;6033464;23;20216;-83
2022/04/06 01:14:14;;;;;;;4.70;4.32;;;10.50;99.90;;;;;;6006106;23;20275;-83
2022/04/06 01:16:42;;;;;;;4.80;4.30;;;10.60;99.90;;;;;;6016716;23;20256;-83
2022/04/06 01:19:10;;;;;;;4.60;4.25;;;10.60;99.90;;;;;;6032413;23;20193;-82
2022/04/06 01:21:37;;;;;;;4.70;4.40;;;10.60;99.90;;;;;;6027849;23;20229;-83
2022/04/06 01:24:06;;;;;;;5.03;4.63;;;10.60;99.90;;;;;;6034398;23;20269;-83
2022/04/06 01:26:34;;;;;;;5.03;4.63;;;10.70;99.90;;;;;;6031154;23;20245;-83
2022/04/06 01:29:01;;;;;;;5.15;4.75;;;10.70;99.90;;;;;;6025471;23;20189;-83
2022/04/06 01:31:28;;;;;;;5.72;5.30;;;10.70;99.90;;;;;;6033767;23;20740;-83
2022/04/06 01:33:55;;;;;;;5.32;4.82;;;10.70;99.90;;;;;;6005916;23;20189;-83
2022/04/06 01:36:22;;;;;;;4.97;4.57;;;10.60;99.90;;;;;;6030513;23;20200;-83
2022/04/06 01:38:49;;;;;;;5.00;4.60;;;10.70;99.90;;;;;;6034462;23;20187;-83
2022/04/06 01:41:18;;;;;;;5.40;5.00;;;10.70;99.90;;;;;;6034512;23;20231;-83
2022/04/06 01:43:45;;;;;;;5.10;4.70;;;10.70;99.90;;;;;;6033142;23;20279;-83
2022/04/06 01:46:12;;;;;;;5.22;4.82;;;10.70;99.90;;;;;;6026847;23;20193;-83
2022/04/06 01:52:11;;;;;;;5.10;4.70;;;10.70;99.90;;;;;;6033390;23;20228;-83
2022/04/06 01:54:10;;;;;;;5.50;5.03;;;10.70;99.90;;;;;;6028049;23;20231;-83
2022/04/06 01:56:39;;;;;;;4.78;4.47;;;10.70;99.90;;;;;;6024459;23;20218;-83
2022/04/06 01:59:06;;;;;;;4.88;4.55;;;10.60;99.90;;;;;;6033226;23;20203;-83
2022/04/06 02:01:34;;;;;;;5.47;5.07;;;10.60;99.90;;;;;;6033225;23;20228;-84
2022/04/06 02:04:06;;;;;;;4.80;4.40;;;10.60;99.90;;;;;;6031492;23;20234;-84
2022/04/06 02:06:34;;;;;;;5.00;4.60;;;10.60;99.90;;;;;;6023263;23;20295;-83
2022/04/06 02:09:01;;;;;;;4.78;4.47;;;10.60;99.90;;;;;;6033007;23;20279;-83
2022/04/06 02:11:28;;;;;;;5.32;4.82;;;10.60;99.90;;;;;;6032349;23;20389;-83
2022/04/06 02:13:57;;;;;;;4.63;4.28;;;10.50;99.90;;;;;;6021840;23;20242;-83
2022/04/06 02:16:24;;;;;;;5.30;4.82;;;10.50;99.90;;;;;;6028146;23;20556;-83
2022/04/06 02:18:51;;;;;;;4.82;4.40;;;10.50;99.90;;;;;;6033034;23;20193;-83
2022/04/06 02:21:18;;;;;;;4.72;4.35;;;10.50;99.90;;;;;;6033658;23;20223;-83
2022/04/06 02:23:45;;;;;;;5.38;4.88;;;10.40;99.90;;;;;;6029838;23;20210;-84
2022/04/06 02:26:12;;;;;;;5.20;4.80;;;10.20;99.90;;;;;;6031818;23;20220;-83
2022/04/06 02:28:38;;;;;;;5.20;4.80;;;10.30;99.90;;;;;;6030687;23;20222;-83
2022/04/06 02:31:07;;;;;;;5.07;4.68;;;10.20;99.90;;;;;;6030863;23;20289;-84
2022/04/06 02:33:35;;;;;;;5.32;4.93;;;10.10;99.90;;;;;;6016016;23;20283;-84
2022/04/06 02:36:03;;;;;;;5.90;5.05;;;10.10;99.90;;;;;;6021190;23;20194;-84
2022/04/06 02:38:30;;;;;;;5.72;5.32;;;10.10;99.90;;;;;;6028446;23;20194;-83
2022/04/06 02:40:57;;;;;;;6.05;5.55;;;10.10;99.90;;;;;;6032181;23;20229;-84
2022/04/06 02:43:25;;;;;;;6.30;5.80;;;10.00;99.90;;;;;;6033800;23;20194;-84
2022/04/06 02:45:52;;;;;;;6.55;6.05;;;10.10;99.90;;;;;;6025626;23;20233;-84
2022/04/06 02:48:20;;;;;;;6.22;5.75;;;10.00;99.90;;;;;;6026396;23;20266;-84
2022/04/06 02:50:47;;;;;;;6.35;5.85;;;10.00;99.90;;;;;;6025460;23;20215;-82
2022/04/06 02:53:15;;;;;;;6.60;6.10;;;10.00;99.90;;;;;;6042287;23;20648;-83
2022/04/06 02:55:42;;;;;;;6.68;6.18;;;10.00;99.90;;;;;;6039047;23;20267;-84
2022/04/06 02:58:09;;;;;;;6.40;5.80;;;10.00;99.90;;;;;;6030682;23;20654;-84
2022/04/06 03:00:36;;;;;;;6.47;5.95;;;9.90;99.90;;;;;;6032688;23;20223;-84
2022/04/06 03:03:03;;;;;;;6.70;6.10;;;9.90;99.90;;;;;;6033865;23;20304;-83
2022/04/06 03:05:31;;;;;;;6.35;5.60;;;9.90;99.90;;;;;;6032823;23;20275;-84
2022/04/06 03:07:58;;;;;;;7.03;6.53;;;9.90;99.90;;;;;;6031675;23;20204;-84
2022/04/06 03:10:25;;;;;;;5.72;5.32;;;9.90;99.90;;;;;;6029761;23;20632;-83
2022/04/06 03:12:52;;;;;;;6.10;5.32;;;9.90;99.90;;;;;;6032532;23;20214;-83
2022/04/06 03:15:19;;;;;;;6.72;6.07;;;9.90;99.90;;;;;;6026445;23;20282;-84
2022/04/06 03:17:47;;;;;;;5.75;5.25;;;10.00;99.90;;;;;;6027820;23;20527;-83
2022/04/06 03:20:14;;;;;;;5.45;5.05;;;10.00;99.90;;;;;;6027064;23;20216;-84
2022/04/06 03:22:42;;;;;;;5.18;4.78;;;10.10;99.90;;;;;;6032718;23;20252;-83
2022/04/06 03:25:10;;;;;;;5.40;4.90;;;10.00;99.90;;;;;;6031745;23;20551;-83
2022/04/06 03:27:37;;;;;;;5.55;5.15;;;10.10;99.90;;;;;;6022382;23;20228;-83
2022/04/06 03:30:06;;;;;;;5.63;5.18;;;10.00;99.90;;;;;;6032126;23;20222;-84
2022/04/06 03:32:33;;;;;;;4.90;4.50;;;10.00;99.90;;;;;;6032591;23;20194;-84
2022/04/06 03:34:59;;;;;;;5.47;5.00;;;10.00;99.90;;;;;;6008937;23;20233;-84
2022/04/06 03:37:26;;;;;;;5.35;4.95;;;10.00;99.90;;;;;;6019939;23;20257;-84
2022/04/06 03:39:55;;;;;;;5.22;4.80;;;10.00;99.90;;;;;;6029844;23;20745;-84
2022/04/06 03:42:22;;;;;;;5.65;5.15;;;10.00;99.90;;;;;;6033407;23;20305;-83
2022/04/06 03:44:49;;;;;;;4.80;4.40;;;10.00;99.90;;;;;;6032510;23;20192;-83
2022/04/06 03:47:16;;;;;;;5.40;4.90;;;10.00;99.90;;;;;;6026003;23;20192;-84
2022/04/06 03:49:43;;;;;;;5.20;4.80;;;10.00;99.90;;;;;;6033803;23;20216;-83
2022/04/06 03:52:10;;;;;;;5.25;4.85;;;10.00;99.90;;;;;;6032402;23;20198;-84
2022/04/06 03:54:38;;;;;;;5.13;4.72;;;10.00;99.90;;;;;;6031285;23;20246;-84
2022/04/06 03:57:06;;;;;;;5.50;4.95;;;10.00;99.90;;;;;;6009780;23;20196;-84
2022/04/06 03:59:33;;;;;;;4.90;4.50;;;10.00;99.90;;;;;;6034710;23;20266;-83
2022/04/06 04:02:00;;;;;;;5.80;5.30;;;10.00;99.90;;;;;;6017335;23;20303;-83
2022/04/06 04:04:28;;;;;;;6.03;5.43;;;9.90;99.90;;;;;;6033145;23;20228;-84
2022/04/06 04:06:55;;;;;;;5.85;5.38;;;9.90;99.90;;;;;;6031026;23;20277;-84
2022/04/06 04:09:22;;;;;;;5.18;4.78;;;9.90;99.90;;;;;;6034086;23;20273;-83
2022/04/06 04:11:48;;;;;;;5.75;5.35;;;9.90;99.90;;;;;;6028892;23;20650;-84
2022/04/06 04:14:17;;;;;;;6.30;5.80;;;9.90;99.90;;;;;;6029413;23;20953;-83
2022/04/06 04:16:44;;;;;;;6.20;5.60;;;9.90;99.90;;;;;;6034340;23;20186;-84
2022/04/06 04:19:11;;;;;;;5.85;5.38;;;9.90;99.90;;;;;;6033687;23;20187;-84
2022/04/06 04:21:38;;;;;;;6.38;5.88;;;9.90;99.90;;;;;;6032600;23;20310;-84
2022/04/06 04:26:36;;;;;;;5.90;5.50;;;10.00;99.90;;;;;;6043113;23;20204;-73
2022/04/06 04:29:03;;;;;;;5.80;5.40;;;10.00;99.90;;;;;;6027472;23;20196;-73
2022/04/06 04:31:32;;;;;;;6.75;6.15;;;10.00;99.90;;;;;;6017314;23;20190;-74
2022/04/06 04:33:59;;;;;;;6.20;5.70;;;9.90;99.90;;;;;;6029962;23;20207;-74
2022/04/06 04:36:27;;;;;;;6.38;5.82;;;9.90;99.90;;;;;;6032386;23;20199;-73
2022/04/06 04:38:54;;;;;;;5.70;5.30;;;10.10;99.90;;;;;;6021756;23;20187;-73
2022/04/06 04:41:21;;;;;;;6.80;6.20;;;9.80;99.90;;;;;;6022230;23;20298;-73
2022/04/06 04:43:48;;;;;;;6.00;5.50;;;9.80;99.90;;;;;;6028778;23;20294;-73
2022/04/06 04:46:15;;;;;;;6.13;5.63;;;9.80;99.90;;;;;;6030441;23;20294;-73
2022/04/06 04:48:44;;;;;;;6.78;6.28;;;9.80;99.90;;;;;;6029354;23;20357;-73
2022/04/06 04:51:11;;;;;;;7.25;6.55;;;9.80;99.90;;;;;;6030673;23;20226;-73
2022/04/06 04:53:41;;;;;;;6.45;5.95;;;9.70;99.90;;;;;;6029932;23;20304;-73
2022/04/06 04:56:09;;;;;;;5.80;5.40;;;9.70;99.90;;;;;;6030068;23;20639;-73
2022/04/06 04:58:36;;;;;;;6.03;5.53;;;9.70;99.90;;;;;;6027779;23;20188;-73
2022/04/06 05:01:03;;;;;;;6.70;6.10;;;9.70;99.90;;;;;;6024332;23;20207;-73
2022/04/06 05:03:30;;;;;;;6.25;5.75;;;9.70;99.90;;;;;;6026801;23;20211;-74
2022/04/06 05:05:59;;;;;;;6.68;6.07;;;9.70;99.90;;;;;;6027975;23;20259;-74
2022/04/06 05:08:26;;;;;;;6.20;5.70;;;9.70;99.90;;;;;;6030013;23;20193;-73
2022/04/06 05:10:53;;;;;;;6.25;5.75;;;9.70;99.90;;;;;;6029283;23;20209;-73
2022/04/06 05:13:21;;;;;;;6.32;5.82;;;9.70;99.90;;;;;;6027395;23;20238;-73
2022/04/06 05:15:48;;;;;;;7.00;6.15;;;9.80;99.90;;;;;;6028454;23;20193;-74
2022/04/06 05:18:14;;;;;;;6.07;5.47;;;9.70;99.90;;;;;;6032633;23;20188;-74
2022/04/06 05:20:42;;;;;;;6.22;5.72;;;9.80;99.90;;;;;;6016930;23;20267;-74
2022/04/06 05:23:10;;;;;;;7.05;5.47;;;9.80;99.90;;;;;;6032254;23;20194;-74
2022/04/06 05:25:37;;;;;;;6.65;6.05;;;9.80;99.90;;;;;;6031531;23;20196;-74
2022/04/06 05:28:05;;;;;;;6.70;6.20;;;9.70;99.90;;;;;;6030432;23;20242;-74
2022/04/06 05:30:33;;;;;;;6.32;5.82;;;9.80;99.90;;;;;;6022638;23;20543;-75
2022/04/06 05:33:00;;;;;;;6.70;6.20;;;9.80;99.90;;;;;;6027766;23;20207;-75
2022/04/06 05:35:27;;;;;;;6.03;5.45;;;9.80;99.90;;;;;;6026139;23;20812;-75
2022/04/06 05:37:56;;;;;;;7.03;6.38;;;9.80;99.90;;;;;;6030234;23;20188;-74
2022/04/06 05:40:25;;;;;;;5.75;5.25;;;9.80;99.90;;;;;;6024388;23;20293;-74
2022/04/06 05:42:52;;;;;;;5.82;5.18;;;9.80;99.90;;;;;;6016536;23;21673;-73
2022/04/06 05:45:19;;;;;;;6.50;6.00;;;9.80;99.90;;;;;;6027128;23;20307;-73
2022/04/06 05:47:46;;;;;;;6.88;6.28;;;9.90;99.90;;;;;;6019577;23;20265;-74
2022/04/06 05:50:14;;;;;;;5.35;4.95;;;9.90;99.90;;;;;;6017524;23;20204;-73
2022/04/06 05:52:42;;;;;;;6.05;5.65;;;9.90;99.90;;;;;;6026226;23;20207;-74
2022/04/06 05:55:11;;;;;;;9.50;5.80;;;9.90;99.90;;;;;;6026515;23;20203;-74
2022/04/06 05:57:39;;;;;;;5.63;5.13;;;10.00;99.90;;;;;;6028053;23;20592;-74
2022/04/06 06:00:08;;;;;;;5.63;5.20;;;10.00;99.90;;;;;;6027043;23;20216;-73
2022/04/06 06:02:35;;;;;;;6.13;5.63;;;10.00;99.90;;;;;;6026626;23;20216;-73
2022/04/06 06:05:03;;;;;;;5.88;5.43;;;10.00;99.90;;;;;;6026084;23;20266;-74
2022/04/06 06:07:30;;;;;;;5.80;5.20;;;10.10;99.90;;;;;;6020939;23;21791;-74
2022/04/06 06:09:57;;;;;;;6.75;6.05;;;10.10;99.90;;;;;;6026400;23;20208;-74
2022/04/06 06:12:25;;;;;;;6.90;6.22;;;10.10;99.90;;;;;;6025787;23;20192;-74
2022/04/06 06:14:53;;;;;;;7.00;6.40;;;10.20;99.90;;;;;;6029660;23;20235;-74
2022/04/06 06:17:20;;;;;;;5.70;5.30;;;10.20;99.90;;;;;;6026524;23;20430;-73
2022/04/06 06:19:47;;;;;;;6.63;6.03;;;10.30;99.90;;;;;;6029334;23;20211;-73
2022/04/06 06:22:14;;;;;;;5.85;5.45;;;10.40;99.90;;;;;;6026170;23;20600;-74
2022/04/06 06:24:41;;;;;;;6.18;5.68;;;10.40;99.90;;;;;;6029490;23;20207;-73
2022/04/06 06:27:08;;;;;;;6.15;5.65;;;10.50;99.90;;;;;;6029489;23;20199;-74
2022/04/06 06:29:35;;;;;;;5.90;5.40;;;10.50;99.90;;;;;;6028284;23;20292;-74
2022/04/06 06:32:06;;;;;;;5.78;5.20;;;10.50;99.90;;;;;;6029178;23;20357;-73
2022/04/06 06:34:33;;;;;;;5.70;5.20;;;10.60;99.90;;;;;;6025404;23;20189;-73
2022/04/06 06:37:00;;;;;;;6.30;5.80;;;10.60;99.90;;;;;;6028612;23;20683;-74
2022/04/06 06:39:27;;;;;;;5.88;5.45;;;10.50;99.90;;;;;;6028122;23;20223;-73
2022/04/06 06:41:54;;;;;;;5.15;4.75;;;10.50;99.90;;;;;;6029442;23;20222;-74
2022/04/06 06:44:21;;;;;;;5.65;5.25;;;10.60;99.90;;;;;;6028231;23;20199;-74
2022/04/06 06:46:48;;;;;;;5.45;5.00;;;10.50;99.90;;;;;;6022812;23;20188;-74
2022/04/06 06:49:16;;;;;;;6.25;5.70;;;10.60;99.90;;;;;;6021808;23;20295;-74
2022/04/06 06:51:43;;;;;;;5.53;5.03;;;10.70;99.90;;;;;;6026394;23;20284;-74
2022/04/06 06:54:10;;;;;;;5.82;5.25;;;10.70;99.90;;;;;;6023633;23;20675;-74
2022/04/06 06:56:37;;;;;;;6.00;5.50;;;10.80;99.90;;;;;;6028085;23;20912;-74
2022/04/06 06:59:04;;;;;;;5.95;5.45;;;10.90;99.90;;;;;;6032344;23;20288;-73
2022/04/06 07:01:31;;;;;;;5.30;4.85;;;11.00;99.90;;;;;;6030067;23;20209;-74
2022/04/06 07:03:58;;;;;;;5.05;4.63;;;11.10;99.90;;;;;;6028528;23;20260;-74
2022/04/06 07:06:27;;;;;;;4.10;3.80;;;11.10;99.90;;;;;;6027920;23;20189;-74
2022/04/06 07:08:55;;;;;;;5.05;3.60;;;11.10;99.90;;;;;;6028758;23;20209;-74
2022/04/06 07:11:22;;;;;;;4.15;3.40;;;11.10;99.90;;;;;;6027948;23;20186;-74
2022/04/06 07:13:48;;;;;;;4.25;3.95;;;11.00;99.90;;;;;;6030928;23;20603;-74
2022/04/06 07:16:15;;;;;;;3.58;3.25;;;11.00;99.90;;;;;;6027786;23;20191;-74
2022/04/06 07:18:42;;;;;;;3.58;3.33;;;11.00;99.90;;;;;;6029439;23;20525;-74
2022/04/06 07:21:09;;;;;;;4.00;3.70;;;11.10;99.90;;;;;;6031090;23;20267;-74
2022/04/06 07:23:40;;;;;;;3.80;3.50;;;11.10;99.90;;;;;;6027733;23;20663;-74
2022/04/06 07:26:07;;;;;;;3.17;2.88;;;11.20;99.90;;;;;;6030449;23;20201;-73
2022/04/06 07:28:34;;;;;;;3.22;3.03;;;11.20;99.90;;;;;;6028216;23;20251;-73
2022/04/06 07:31:00;;;;;;;3.30;3.10;;;11.30;99.90;;;;;;6030570;23;20498;-74
2022/04/06 07:33:27;;;;;;;3.53;3.30;;;11.40;99.90;;;;;;6029060;23;20276;-74
2022/04/06 07:35:54;;;;;;;5.40;3.17;;;11.50;99.90;;;;;;6028721;23;20652;-74
2022/04/06 07:38:21;;;;;;;3.45;3.17;;;11.60;99.90;;;;;;6029515;23;20201;-74
2022/04/06 07:40:49;;;;;;;3.45;3.15;;;11.70;99.90;;;;;;6026894;23;20286;-74
2022/04/06 07:43:16;;;;;;;3.70;3.20;;;11.80;99.90;;;;;;6030593;23;20220;-74
2022/04/06 07:45:43;;;;;;;4.55;4.25;;;11.80;99.90;;;;;;6028952;23;20209;-74
2022/04/06 07:48:10;;;;;;;3.20;2.90;;;11.90;99.90;;;;;;6027780;23;20200;-74
2022/04/06 07:50:37;;;;;;;3.15;2.95;;;11.90;99.90;;;;;;6029732;23;20216;-74
2022/04/06 07:53:04;;;;;;;5.20;3.47;;;12.00;99.90;;;;;;6030682;23;20193;-74
2022/04/06 07:55:31;;;;;;;3.00;2.80;;;12.00;99.90;;;;;;6027723;23;20251;-74
2022/04/06 07:58:00;;;;;;;3.75;3.10;;;12.10;99.90;;;;;;6021900;23;20217;-74
2022/04/06 08:00:32;;;;;;;3.30;2.78;;;12.20;99.90;;;;;;6019806;23;20230;-74
2022/04/06 08:03:00;;;;;;;4.03;3.00;;;12.40;99.90;;;;;;6018052;23;20217;-74
2022/04/06 08:05:27;;;;;;;3.20;3.00;;;12.50;99.90;;;;;;6028550;23;20235;-74
2022/04/06 08:07:54;;;;;;;3.25;2.95;;;12.60;99.90;;;;;;6011625;23;20245;-74
2022/04/06 08:10:23;;;;;;;3.22;2.50;;;12.80;99.90;;;;;;6008144;23;20689;-74
2022/04/06 08:12:50;;;;;;;3.10;2.90;;;12.70;99.90;;;;;;6010441;23;20209;-74
2022/04/06 08:15:18;;;;;;;3.35;3.05;;;12.80;99.90;;;;;;6021311;23;20189;-74
2022/04/06 08:17:47;;;;;;;3.17;2.85;;;12.80;99.90;;;;;;6030652;23;20197;-74
2022/04/06 08:20:15;;;;;;;2.60;2.40;;;12.80;99.90;;;;;;6024255;23;20202;-74
2022/04/06 08:22:44;;;;;;;2.88;2.67;;;12.90;99.90;;;;;;6028083;23;20631;-74
2022/04/06 08:25:11;;;;;;;3.00;2.75;;;13.00;99.90;;;;;;6030936;23;20189;-74
2022/04/06 08:27:40;;;;;;;3.45;3.25;;;13.00;99.90;;;;;;6025645;23;20454;-74
2022/04/06 08:30:09;;;;;;;3.55;3.30;;;13.00;99.90;;;;;;6028950;23;20206;-74
2022/04/06 08:32:38;;;;;;;2.53;2.35;;;13.00;99.90;;;;;;6017135;23;20641;-74
2022/04/06 08:35:05;;;;;;;2.53;2.33;;;13.00;99.90;;;;;;6024253;23;20181;-74
2022/04/06 08:37:33;;;;;;;2.05;1.95;;;13.00;99.90;;;;;;6027750;23;20213;-74
2022/04/06 08:40:00;;;;;;;2.42;2.15;;;12.90;99.90;;;;;;6029644;23;20225;-74
2022/04/06 08:42:32;;;;;;;2.55;2.00;;;12.90;99.90;;;;;;6027612;23;20209;-74
2022/04/06 08:45:01;;;;;;;1.80;1.70;;;12.70;99.90;;;;;;6015252;23;20209;-74
2022/04/06 08:47:31;;;;;;;1.90;1.80;;;12.40;99.90;;;;;;6028629;23;20189;-74
2022/04/06 08:50:00;;;;;;;2.08;1.50;;;12.20;99.90;;;;;;6017977;23;20224;-74
2022/04/06 08:52:27;;;;;;;1.90;1.80;;;11.90;99.90;;;;;;6014446;23;20278;-76
2022/04/06 08:54:54;;;;;;;1.95;1.60;;;11.80;99.90;;;;;;6025528;23;21771;-74
2022/04/06 08:57:21;;;;;;;1.80;1.67;;;11.80;99.90;;;;;;6025158;23;20196;-74
2022/04/06 08:59:49;;;;;;;1.85;1.70;;;11.80;99.90;;;;;;6029126;23;20379;-74
2022/04/06 09:02:20;;;;;;;1.50;1.40;;;12.10;99.90;;;;;;6029631;23;20213;-74
2022/04/06 09:04:53;;;;;;;1.60;1.50;;;12.80;99.90;;;;;;6030422;23;20235;-74
2022/04/06 09:07:23;;;;;;;1.30;1.20;;;12.90;99.90;;;;;;6030336;23;20261;-74
2022/04/06 09:09:51;;;;;;;1.33;1.23;;;13.00;99.90;;;;;;6023302;23;20240;-74
2022/04/06 09:12:20;;;;;;;1.13;1.02;;;14.00;99.90;;;;;;6029995;23;20186;-74
2022/04/06 09:14:48;;;;;;;1.73;1.00;;;14.80;99.90;;;;;;6030299;23;20191;-74
2022/04/06 09:17:20;;;;;;;1.02;0.90;;;14.90;99.90;;;;;;6030152;23;20873;-74
2022/04/06 09:19:49;;;;;;;1.30;1.20;;;14.60;99.90;;;;;;6030612;23;20209;-74
2022/04/06 09:22:17;;;;;;;1.15;1.05;;;14.30;99.90;;;;;;6029565;23;20300;-74
2022/04/06 09:24:55;;;;;;;1.90;1.23;;;14.00;99.90;;;;;;6026720;23;20201;-74
2022/04/06 09:27:22;;;;;;;1.13;1.00;;;13.80;99.90;;;;;;6029531;23;20914;-74
2022/04/06 09:29:49;;;;;;;1.65;1.13;;;13.50;99.90;;;;;;6016895;23;20244;-74
2022/04/06 09:32:16;;;;;;;1.10;0.95;;;13.20;99.90;;;;;;6029900;23;20189;-74
2022/04/06 09:34:46;;;;;;;1.70;1.20;;;13.10;99.90;;;;;;6020203;23;20202;-75
2022/04/06 09:37:27;;;;;;;1.10;1.00;;;13.30;99.90;;;;;;6017212;23;20193;-75
2022/04/06 09:39:57;;;;;;;1.30;1.20;;;13.70;99.90;;;;;;6028992;23;20205;-74
2022/04/06 09:42:25;;;;;;;1.20;1.02;;;13.80;99.90;;;;;;6025788;23;20209;-74
2022/04/06 09:47:39;;;;;;;1.20;1.10;;;15.70;99.90;;;;;;6031399;23;20441;-73
2022/04/06 09:50:11;;;;;;;1.10;1.00;;;16.10;99.90;;;;;;6031986;23;20771;-73
2022/04/06 09:52:39;;;;;;;1.20;1.10;;;15.80;99.90;;;;;;6031984;23;20442;-73
2022/04/06 09:55:10;;;;;;;0.90;0.80;;;15.40;99.90;;;;;;6024990;23;20471;-73
2022/04/06 09:57:45;;;;;;;1.57;0.93;;;15.10;99.90;;;;;;6031520;23;20521;-74
2022/04/06 10:00:17;;;;;;;1.07;0.80;;;14.80;99.90;;;;;;6031652;23;20530;-73
2022/04/06 10:02:46;;;;;;;1.20;0.87;;;14.80;99.90;;;;;;6032679;23;20539;-73
2022/04/06 10:05:14;;;;;;;1.30;0.97;;;15.00;99.90;;;;;;6031828;23;20447;-74
2022/04/06 10:07:43;;;;;;;1.70;1.00;;;15.40;99.90;;;;;;6032534;23;20805;-74
2022/04/06 10:10:12;;;;;;;1.13;1.03;;;15.50;99.90;;;;;;6032283;23;20497;-72
2022/04/06 10:12:40;;;;;;;0.73;0.73;;;15.40;99.90;;;;;;6030501;23;20435;-75
2022/04/06 10:15:07;;;;;;;0.93;0.90;;;14.90;99.90;;;;;;6031414;23;20452;-72
2022/04/06 10:17:36;;;;;;;0.70;0.70;;;14.70;99.90;;;;;;6031820;23;20926;-72
2022/04/06 10:20:16;;;;;;;1.00;0.90;;;14.50;99.90;;;;;;6031736;23;20312;-72
2022/04/06 10:22:59;;;;;;;0.98;0.90;;;14.20;99.90;;;;;;6032073;23;20220;-74
2022/04/06 10:25:37;;;;;;;1.67;0.70;;;14.30;99.90;;;;;;6047886;23;20303;-84
2022/04/06 10:28:10;;;;;;;0.70;0.70;;;14.50;99.90;;;;;;6086618;23;20467;-81
2022/04/06 10:30:38;;;;;;;0.70;0.57;;;14.70;99.90;;;;;;6041148;23;20187;-85
2022/04/06 10:33:20;;;;;;;0.80;0.63;;;15.50;99.90;;;;;;6057263;23;20460;-87
2022/04/06 10:35:48;;;;;;;0.80;0.60;;;16.10;99.90;;;;;;6044939;23;20531;-86
2022/04/06 10:38:17;;;;;;;1.30;0.90;;;16.60;99.90;;;;;;6075876;23;20465;-85
2022/04/06 10:40:59;;;;;;;0.70;0.60;;;17.00;99.90;;;;;;6061474;23;20446;-86
2022/04/06 10:43:50;;;;;;;0.90;0.60;;;17.00;99.90;;;;;;6057853;23;20466;-86
2022/04/06 10:46:19;;;;;;;1.17;0.70;;;17.20;99.90;;;;;;6067115;23;20874;-86
2022/04/06 10:49:13;;;;;;;0.70;0.60;;;17.80;99.90;;;;;;6069202;23;20982;-87
2022/04/06 10:51:41;;;;;;;1.13;0.70;;;17.70;99.90;;;;;;6035742;23;20440;-83
2022/04/06 10:54:40;;;;;;;0.60;0.50;;;17.10;99.90;;;;;;6040090;23;20453;-86
2022/04/06 10:57:09;;;;;;;0.73;0.60;;;16.80;99.90;;;;;;6064862;23;20521;-87
2022/04/06 10:59:36;;;;;;;0.80;0.70;;;16.70;99.90;;;;;;6062229;23;20455;-86
2022/04/06 11:02:18;;;;;;;0.60;0.60;;;16.70;99.90;;;;;;6063841;23;20479;-87
2022/04/06 11:04:45;;;;;;;0.70;0.60;;;16.70;99.90;;;;;;6060948;23;20536;-88
2022/04/06 11:07:15;;;;;;;1.10;0.60;;;16.50;99.90;;;;;;6051794;23;20448;-87
2022/04/06 11:12:31;;;;;;;0.90;0.70;;;17.20;99.90;;;;;;6065875;23;20450;-84
2022/04/06 11:15:20;;;;;;;0.90;0.80;;;17.30;99.90;;;;;;6045020;23;20470;-85
2022/04/06 11:17:48;;;;;;;1.03;0.70;;;17.90;99.90;;;;;;6057008;23;20533;-84
2022/04/06 11:20:17;;;;;;;0.67;0.60;;;18.40;99.80;;;;;;6035672;23;20958;-84
2022/04/06 11:22:50;;;;;;;0.90;0.80;;;19.00;98.50;;;;;;6049795;23;20454;-84
2022/04/06 11:25:20;;;;;;;0.60;0.50;;;18.80;97.70;;;;;;6051025;23;20861;-84
2022/04/06 11:27:49;;;;;;;0.70;0.70;;;18.60;98.10;;;;;;6052576;23;20463;-85
2022/04/06 11:30:18;;;;;;;1.80;0.70;;;18.60;97.70;;;;;;6060360;23;20459;-84
2022/04/06 11:32:51;;;;;;;0.70;0.63;;;18.70;98.90;;;;;;6033924;23;20476;-83
2022/04/06 11:35:18;;;;;;;0.90;0.73;;;19.10;97.00;;;;;;6052350;23;20435;-85
2022/04/06 11:37:48;;;;;;;0.87;0.70;;;18.50;97.50;;;;;;6067160;23;21131;-84
2022/04/06 11:40:17;;;;;;;0.60;0.57;;;17.90;98.50;;;;;;6055341;23;20451;-84
2022/04/06 11:42:49;;;;;;;1.20;0.63;;;18.10;98.90;;;;;;6087333;23;20434;-85
2022/04/06 11:45:21;;;;;;;0.80;0.73;;;19.00;98.40;;;;;;6069258;23;20443;-85
2022/04/06 11:47:54;;;;;;;0.70;0.60;;;19.20;97.00;;;;;;6061575;23;20532;-85
2022/04/06 11:50:22;;;;;;;1.00;0.80;;;19.20;97.30;;;;;;6062534;23;20450;-84
2022/04/06 11:52:50;;;;;;;0.80;0.80;;;18.30;97.00;;;;;;6062142;23;20443;-84
2022/04/06 11:55:17;;;;;;;0.90;0.60;;;17.80;96.10;;;;;;6063605;23;20790;-84
2022/04/06 11:57:45;;;;;;;1.07;0.90;;;17.20;97.10;;;;;;6063812;23;20466;-84
2022/04/06 12:00:18;;;;;;;2.10;0.70;;;16.90;97.80;;;;;;6052120;23;21192;-84
2022/04/06 12:02:50;;;;;;;0.80;0.70;;;16.60;98.90;;;;;;6054803;23;21302;-85
2022/04/06 12:05:18;;;;;;;0.90;0.70;;;16.30;99.60;;;;;;6055375;23;20861;-84
2022/04/06 12:07:45;;;;;;;0.67;0.60;;;16.50;99.80;;;;;;6050456;23;20809;-84
2022/04/06 12:10:15;;;;;;;0.80;0.70;;;17.00;99.50;;;;;;6053488;23;20447;-83
2022/04/06 12:12:43;;;;;;;0.70;0.63;;;17.00;99.00;;;;;;6044166;23;20523;-84
2022/04/06 12:15:11;;;;;;;0.70;0.70;;;17.10;99.60;;;;;;6034460;23;20479;-84
2022/04/06 12:17:40;;;;;;;1.00;0.70;;;17.70;99.00;;;;;;6039256;23;20455;-84
2022/04/06 12:20:25;;;;;;;1.23;0.80;;;18.30;97.30;;;;;;6049656;23;20452;-85
2022/04/06 12:23:03;;;;;;;0.83;0.63;;;18.20;95.90;;;;;;6039823;23;20471;-87
2022/04/06 12:25:31;;;;;;;0.90;0.60;;;17.40;97.60;;;;;;6054390;23;20455;-88
2022/04/06 12:28:15;;;;;;;1.90;0.80;;;17.00;98.00;;;;;;6056710;23;20459;-86
2022/04/06 12:30:57;;;;;;;0.70;0.57;;;17.00;97.80;;;;;;6057567;23;20467;-87
2022/04/06 12:33:37;;;;;;;1.37;0.80;;;17.50;97.50;;;;;;6041860;23;20440;-85
2022/04/06 12:36:08;;;;;;;1.40;0.80;;;17.90;96.90;;;;;;6049125;23;20454;-86
2022/04/06 12:38:35;;;;;;;1.27;0.70;;;17.90;96.70;;;;;;6040615;23;21364;-87
2022/04/06 12:41:08;;;;;;;0.70;0.63;;;18.20;97.10;;;;;;6044928;23;20467;-86
2022/04/06 12:43:38;;;;;;;0.90;0.70;;;18.40;95.80;;;;;;6085379;23;20537;-87
2022/04/06 12:46:05;;;;;;;1.10;0.70;;;18.70;95.90;;;;;;6048649;23;20529;-87
2022/04/06 12:48:32;;;;;;;0.70;0.70;;;18.80;95.40;;;;;;6045480;23;20475;-87
2022/04/06 12:51:17;;;;;;;1.10;0.70;;;18.50;96.00;;;;;;6037780;23;20440;-87
2022/04/06 12:53:48;;;;;;;0.70;0.70;;;18.80;94.30;;;;;;6037397;23;20683;-87
2022/04/06 12:56:21;;;;;;;0.67;0.60;;;19.00;94.20;;;;;;6062001;23;20934;-86
2022/04/06 12:59:07;;;;;;;0.70;0.70;;;18.90;94.50;;;;;;6059512;23;20474;-82
2022/04/06 13:01:34;;;;;;;0.70;0.70;;;18.70;94.00;;;;;;6049451;23;20439;-83
2022/04/06 13:04:02;;;;;;;0.70;0.63;;;18.50;94.80;;;;;;6053068;23;20474;-83
2022/04/06 13:06:32;;;;;;;1.23;0.70;;;18.50;94.30;;;;;;6037536;23;20442;-86
2022/04/06 13:09:00;;;;;;;1.07;0.90;;;18.00;94.10;;;;;;6054455;23;20534;-86